Treviso-Sant'Angelo Airport

Airport
ICAO code: 
LIPH
IATA Code: 
TSF
Summary
ICAO Region: 
EUR
Territory: 
Location: 
Treviso, Veneto
Serving: 
Treviso
Elevation: 
59 ft
Coordinates: 
Aerial View: 
45° 38' 54.24" N, 12° 11' 39.919" E
Metar
Observation
LIPH 010320Z AUTO 33002KT 9999 NCD M00/M02 Q1013
Station
Treviso / S. Angelo
Date/Time
2021-12-01 03:20:00
Wind direction
330°
Wind speed
02 kts
Lowest cloud amount
no clouds detected
Temperature
-0°C
Dew point
-2°C
Humidity
86%
QNH
1013 hPa
Weather condition
n/a

Runways

Designator Length Width Surface Rops
7/25 2420 44 ASP Yes/Yes
Airport map: 
Aerial View: 

SKYbrary Partners:

Safety knowledge contributed by: